sensor_id;sensor_type;location;lat;lon;timestamp;P1;durP1;ratioP1;P2;durP2;ratioP2
71172;SDS011;58875;51.996;4.504;2022-12-20T00:00:44;5.83;;;5.83;;
71172;SDS011;58875;51.996;4.504;2022-12-20T00:03:10;5.65;;;5.65;;
71172;SDS011;58875;51.996;4.504;2022-12-20T00:05:36;5.67;;;5.67;;
71172;SDS011;58875;51.996;4.504;2022-12-20T00:08:06;5.63;;;5.63;;
71172;SDS011;58875;51.996;4.504;2022-12-20T00:10:35;5.54;;;5.54;;
71172;SDS011;58875;51.996;4.504;2022-12-20T00:13:05;5.65;;;5.65;;
71172;SDS011;58875;51.996;4.504;2022-12-20T00:15:32;5.60;;;5.60;;
71172;SDS011;58875;51.996;4.504;2022-12-20T00:17:58;5.63;;;5.63;;
71172;SDS011;58875;51.996;4.504;2022-12-20T00:20:24;5.46;;;5.46;;
71172;SDS011;58875;51.996;4.504;2022-12-20T00:22:50;5.72;;;5.72;;
71172;SDS011;58875;51.996;4.504;2022-12-20T00:25:15;5.58;;;5.58;;
71172;SDS011;58875;51.996;4.504;2022-12-20T00:27:41;5.71;;;5.71;;
71172;SDS011;58875;51.996;4.504;2022-12-20T00:30:07;5.55;;;5.55;;
71172;SDS011;58875;51.996;4.504;2022-12-20T00:32:33;5.75;;;5.75;;
71172;SDS011;58875;51.996;4.504;2022-12-20T00:34:58;5.67;;;5.67;;
71172;SDS011;58875;51.996;4.504;2022-12-20T00:37:24;5.75;;;5.75;;
71172;SDS011;58875;51.996;4.504;2022-12-20T00:39:49;5.80;;;5.80;;
71172;SDS011;58875;51.996;4.504;2022-12-20T00:42:15;5.67;;;5.67;;
71172;SDS011;58875;51.996;4.504;2022-12-20T00:44:40;5.72;;;5.72;;
71172;SDS011;58875;51.996;4.504;2022-12-20T00:47:06;5.71;;;5.71;;
71172;SDS011;58875;51.996;4.504;2022-12-20T00:49:31;5.64;;;5.64;;
71172;SDS011;58875;51.996;4.504;2022-12-20T00:51:57;5.72;;;5.72;;
71172;SDS011;58875;51.996;4.504;2022-12-20T00:54:23;5.80;;;5.80;;
71172;SDS011;58875;51.996;4.504;2022-12-20T00:56:48;5.69;;;5.69;;
71172;SDS011;58875;51.996;4.504;2022-12-20T00:59:14;5.59;;;5.59;;
71172;SDS011;58875;51.996;4.504;2022-12-20T01:01:39;5.85;;;5.85;;
71172;SDS011;58875;51.996;4.504;2022-12-20T01:04:05;5.90;;;5.90;;
71172;SDS011;58875;51.996;4.504;2022-12-20T01:06:31;5.81;;;5.81;;
71172;SDS011;58875;51.996;4.504;2022-12-20T01:08:57;5.64;;;5.64;;
71172;SDS011;58875;51.996;4.504;2022-12-20T01:11:23;5.63;;;5.63;;
71172;SDS011;58875;51.996;4.504;2022-12-20T01:13:53;5.77;;;5.77;;
71172;SDS011;58875;51.996;4.504;2022-12-20T01:16:22;5.42;;;5.42;;
71172;SDS011;58875;51.996;4.504;2022-12-20T01:18:53;5.41;;;5.41;;
71172;SDS011;58875;51.996;4.504;2022-12-20T01:21:20;5.59;;;5.59;;
71172;SDS011;58875;51.996;4.504;2022-12-20T01:23:46;5.64;;;5.64;;
71172;SDS011;58875;51.996;4.504;2022-12-20T01:26:13;5.42;;;5.42;;
71172;SDS011;58875;51.996;4.504;2022-12-20T01:28:42;5.32;;;5.32;;
71172;SDS011;58875;51.996;4.504;2022-12-20T01:31:11;5.33;;;5.33;;
71172;SDS011;58875;51.996;4.504;2022-12-20T01:33:38;5.26;;;5.26;;
71172;SDS011;58875;51.996;4.504;2022-12-20T01:36:05;5.42;;;5.42;;
71172;SDS011;58875;51.996;4.504;2022-12-20T01:38:34;5.33;;;5.33;;
71172;SDS011;58875;51.996;4.504;2022-12-20T01:41:00;5.52;;;5.52;;
71172;SDS011;58875;51.996;4.504;2022-12-20T01:46:50;6.16;;;6.16;;
71172;SDS011;58875;51.996;4.504;2022-12-20T01:51:49;6.53;;;6.53;;
71172;SDS011;58875;51.996;4.504;2022-12-20T01:54:23;6.89;;;6.89;;
71172;SDS011;58875;51.996;4.504;2022-12-20T01:56:59;6.72;;;6.72;;
71172;SDS011;58875;51.996;4.504;2022-12-20T01:59:30;6.68;;;6.68;;
71172;SDS011;58875;51.996;4.504;2022-12-20T02:02:02;6.51;;;6.51;;
71172;SDS011;58875;51.996;4.504;2022-12-20T02:04:32;6.79;;;6.79;;
71172;SDS011;58875;51.996;4.504;2022-12-20T02:06:58;6.51;;;6.51;;
71172;SDS011;58875;51.996;4.504;2022-12-20T02:09:26;6.48;;;6.48;;
71172;SDS011;58875;51.996;4.504;2022-12-20T02:17:31;6.56;;;6.56;;
71172;SDS011;58875;51.996;4.504;2022-12-20T02:30:53;6.95;;;6.95;;
71172;SDS011;58875;51.996;4.504;2022-12-20T02:33:24;6.96;;;6.96;;
71172;SDS011;58875;51.996;4.504;2022-12-20T02:35:52;6.91;;;6.91;;
71172;SDS011;58875;51.996;4.504;2022-12-20T02:38:29;6.95;;;6.95;;
71172;SDS011;58875;51.996;4.504;2022-12-20T02:41:02;6.86;;;6.86;;
71172;SDS011;58875;51.996;4.504;2022-12-20T02:43:36;6.91;;;6.91;;
71172;SDS011;58875;51.996;4.504;2022-12-20T02:46:25;6.85;;;6.85;;
71172;SDS011;58875;51.996;4.504;2022-12-20T02:48:52;6.74;;;6.74;;
71172;SDS011;58875;51.996;4.504;2022-12-20T02:51:25;6.92;;;6.92;;
71172;SDS011;58875;51.996;4.504;2022-12-20T02:53:54;6.78;;;6.78;;
71172;SDS011;58875;51.996;4.504;2022-12-20T02:56:37;6.72;;;6.72;;
71172;SDS011;58875;51.996;4.504;2022-12-20T02:59:13;6.71;;;6.71;;
71172;SDS011;58875;51.996;4.504;2022-12-20T03:01:48;6.60;;;6.60;;
71172;SDS011;58875;51.996;4.504;2022-12-20T03:04:16;6.83;;;6.83;;
71172;SDS011;58875;51.996;4.504;2022-12-20T03:09:24;6.62;;;6.62;;
71172;SDS011;58875;51.996;4.504;2022-12-20T03:11:50;6.47;;;6.47;;
71172;SDS011;58875;51.996;4.504;2022-12-20T03:14:17;6.14;;;6.14;;
71172;SDS011;58875;51.996;4.504;2022-12-20T03:16:43;5.98;;;5.98;;
71172;SDS011;58875;51.996;4.504;2022-12-20T03:19:08;6.10;;;6.10;;
71172;SDS011;58875;51.996;4.504;2022-12-20T03:21:34;5.81;;;5.81;;
71172;SDS011;58875;51.996;4.504;2022-12-20T03:23:59;6.07;;;6.07;;
71172;SDS011;58875;51.996;4.504;2022-12-20T03:26:25;5.88;;;5.88;;
71172;SDS011;58875;51.996;4.504;2022-12-20T03:28:50;5.67;;;5.67;;
71172;SDS011;58875;51.996;4.504;2022-12-20T03:31:17;5.57;;;5.57;;
71172;SDS011;58875;51.996;4.504;2022-12-20T03:33:42;5.84;;;5.84;;
71172;SDS011;58875;51.996;4.504;2022-12-20T03:36:08;6.17;;;6.17;;
71172;SDS011;58875;51.996;4.504;2022-12-20T03:38:33;5.42;;;5.42;;
71172;SDS011;58875;51.996;4.504;2022-12-20T03:40:59;5.82;;;5.82;;
71172;SDS011;58875;51.996;4.504;2022-12-20T03:43:24;5.57;;;5.57;;
71172;SDS011;58875;51.996;4.504;2022-12-20T03:45:49;5.58;;;5.58;;
71172;SDS011;58875;51.996;4.504;2022-12-20T03:48:15;5.10;;;5.10;;
71172;SDS011;58875;51.996;4.504;2022-12-20T03:50:41;5.44;;;5.44;;
71172;SDS011;58875;51.996;4.504;2022-12-20T03:53:07;5.52;;;5.52;;
71172;SDS011;58875;51.996;4.504;2022-12-20T03:55:32;5.14;;;5.14;;
71172;SDS011;58875;51.996;4.504;2022-12-20T03:57:58;5.45;;;5.45;;
71172;SDS011;58875;51.996;4.504;2022-12-20T04:00:23;5.27;;;5.27;;
71172;SDS011;58875;51.996;4.504;2022-12-20T04:02:49;5.31;;;5.31;;
71172;SDS011;58875;51.996;4.504;2022-12-20T04:05:14;5.14;;;5.14;;
71172;SDS011;58875;51.996;4.504;2022-12-20T04:07:40;5.26;;;5.26;;
71172;SDS011;58875;51.996;4.504;2022-12-20T04:10:06;5.12;;;5.12;;
71172;SDS011;58875;51.996;4.504;2022-12-20T04:12:32;5.34;;;5.34;;
71172;SDS011;58875;51.996;4.504;2022-12-20T04:14:58;5.32;;;5.32;;
71172;SDS011;58875;51.996;4.504;2022-12-20T04:17:23;5.44;;;5.44;;
71172;SDS011;58875;51.996;4.504;2022-12-20T04:19:48;5.43;;;5.43;;
71172;SDS011;58875;51.996;4.504;2022-12-20T04:22:14;5.38;;;5.38;;
71172;SDS011;58875;51.996;4.504;2022-12-20T04:24:39;5.68;;;5.68;;
71172;SDS011;58875;51.996;4.504;2022-12-20T04:27:05;5.56;;;5.56;;
71172;SDS011;58875;51.996;4.504;2022-12-20T04:29:30;5.81;;;5.81;;
71172;SDS011;58875;51.996;4.504;2022-12-20T04:31:56;5.56;;;5.56;;
71172;SDS011;58875;51.996;4.504;2022-12-20T04:34:22;5.90;;;5.90;;
71172;SDS011;58875;51.996;4.504;2022-12-20T04:36:47;6.12;;;6.12;;
71172;SDS011;58875;51.996;4.504;2022-12-20T04:39:13;6.05;;;6.05;;
71172;SDS011;58875;51.996;4.504;2022-12-20T04:41:38;5.94;;;5.94;;
71172;SDS011;58875;51.996;4.504;2022-12-20T04:44:04;5.97;;;5.97;;
71172;SDS011;58875;51.996;4.504;2022-12-20T04:46:29;6.05;;;6.05;;
71172;SDS011;58875;51.996;4.504;2022-12-20T04:48:55;5.51;;;5.51;;
71172;SDS011;58875;51.996;4.504;2022-12-20T04:51:20;5.68;;;5.68;;
71172;SDS011;58875;51.996;4.504;2022-12-20T04:53:46;5.47;;;5.47;;
71172;SDS011;58875;51.996;4.504;2022-12-20T04:56:15;5.57;;;5.57;;
71172;SDS011;58875;51.996;4.504;2022-12-20T04:58:49;5.28;;;5.28;;
71172;SDS011;58875;51.996;4.504;2022-12-20T05:01:17;5.56;;;5.56;;
71172;SDS011;58875;51.996;4.504;2022-12-20T05:03:43;5.26;;;5.26;;
71172;SDS011;58875;51.996;4.504;2022-12-20T05:06:09;5.39;;;5.39;;
71172;SDS011;58875;51.996;4.504;2022-12-20T05:08:36;5.32;;;5.32;;
71172;SDS011;58875;51.996;4.504;2022-12-20T05:11:02;5.52;;;5.52;;
71172;SDS011;58875;51.996;4.504;2022-12-20T05:13:29;5.54;;;5.54;;
71172;SDS011;58875;51.996;4.504;2022-12-20T05:15:55;4.98;;;4.98;;
71172;SDS011;58875;51.996;4.504;2022-12-20T05:18:22;5.35;;;5.35;;
71172;SDS011;58875;51.996;4.504;2022-12-20T05:20:48;5.35;;;5.35;;
71172;SDS011;58875;51.996;4.504;2022-12-20T05:23:34;4.99;;;4.99;;
71172;SDS011;58875;51.996;4.504;2022-12-20T05:26:18;4.85;;;4.85;;
71172;SDS011;58875;51.996;4.504;2022-12-20T05:28:44;5.43;;;5.43;;
71172;SDS011;58875;51.996;4.504;2022-12-20T05:31:10;5.04;;;5.04;;
71172;SDS011;58875;51.996;4.504;2022-12-20T05:33:35;5.25;;;5.25;;
71172;SDS011;58875;51.996;4.504;2022-12-20T05:36:01;4.90;;;4.90;;
71172;SDS011;58875;51.996;4.504;2022-12-20T05:38:26;5.74;;;5.74;;
71172;SDS011;58875;51.996;4.504;2022-12-20T05:40:52;5.49;;;5.49;;
71172;SDS011;58875;51.996;4.504;2022-12-20T05:43:18;5.74;;;5.74;;
71172;SDS011;58875;51.996;4.504;2022-12-20T05:45:49;6.08;;;6.08;;
71172;SDS011;58875;51.996;4.504;2022-12-20T05:48:16;5.98;;;5.98;;
71172;SDS011;58875;51.996;4.504;2022-12-20T05:50:44;6.11;;;6.11;;
71172;SDS011;58875;51.996;4.504;2022-12-20T05:53:11;6.24;;;6.24;;
71172;SDS011;58875;51.996;4.504;2022-12-20T05:55:46;6.07;;;6.07;;
71172;SDS011;58875;51.996;4.504;2022-12-20T05:58:13;5.64;;;5.64;;
71172;SDS011;58875;51.996;4.504;2022-12-20T06:00:40;5.62;;;5.62;;
71172;SDS011;58875;51.996;4.504;2022-12-20T06:03:07;5.84;;;5.84;;
71172;SDS011;58875;51.996;4.504;2022-12-20T06:05:35;5.70;;;5.70;;
71172;SDS011;58875;51.996;4.504;2022-12-20T06:08:01;5.52;;;5.52;;
71172;SDS011;58875;51.996;4.504;2022-12-20T06:10:28;5.55;;;5.55;;
71172;SDS011;58875;51.996;4.504;2022-12-20T06:12:53;5.48;;;5.48;;
71172;SDS011;58875;51.996;4.504;2022-12-20T06:15:19;5.37;;;5.37;;
71172;SDS011;58875;51.996;4.504;2022-12-20T06:17:44;5.62;;;5.62;;
71172;SDS011;58875;51.996;4.504;2022-12-20T06:20:10;5.54;;;5.54;;
71172;SDS011;58875;51.996;4.504;2022-12-20T06:22:36;5.32;;;5.32;;
71172;SDS011;58875;51.996;4.504;2022-12-20T06:25:03;5.22;;;5.22;;
71172;SDS011;58875;51.996;4.504;2022-12-20T06:27:29;5.22;;;5.22;;
71172;SDS011;58875;51.996;4.504;2022-12-20T06:29:55;5.24;;;5.24;;
71172;SDS011;58875;51.996;4.504;2022-12-20T06:32:21;5.28;;;5.28;;
71172;SDS011;58875;51.996;4.504;2022-12-20T06:34:46;5.32;;;5.32;;
71172;SDS011;58875;51.996;4.504;2022-12-20T06:37:12;5.21;;;5.21;;
71172;SDS011;58875;51.996;4.504;2022-12-20T06:39:37;5.37;;;5.37;;
71172;SDS011;58875;51.996;4.504;2022-12-20T06:42:03;5.35;;;5.35;;
71172;SDS011;58875;51.996;4.504;2022-12-20T06:44:29;5.05;;;5.05;;
71172;SDS011;58875;51.996;4.504;2022-12-20T06:46:54;5.36;;;5.36;;
71172;SDS011;58875;51.996;4.504;2022-12-20T06:49:19;5.04;;;5.04;;
71172;SDS011;58875;51.996;4.504;2022-12-20T06:51:47;4.93;;;4.93;;
71172;SDS011;58875;51.996;4.504;2022-12-20T06:54:13;5.01;;;5.01;;
71172;SDS011;58875;51.996;4.504;2022-12-20T06:56:38;5.15;;;5.15;;
71172;SDS011;58875;51.996;4.504;2022-12-20T06:59:04;5.07;;;5.07;;
71172;SDS011;58875;51.996;4.504;2022-12-20T07:01:30;5.12;;;5.12;;
71172;SDS011;58875;51.996;4.504;2022-12-20T07:03:56;4.83;;;4.83;;
71172;SDS011;58875;51.996;4.504;2022-12-20T07:06:22;4.70;;;4.70;;
71172;SDS011;58875;51.996;4.504;2022-12-20T07:08:47;4.75;;;4.75;;
71172;SDS011;58875;51.996;4.504;2022-12-20T07:11:13;5.03;;;5.03;;
71172;SDS011;58875;51.996;4.504;2022-12-20T07:13:39;4.80;;;4.80;;
71172;SDS011;58875;51.996;4.504;2022-12-20T07:16:04;4.47;;;4.47;;
71172;SDS011;58875;51.996;4.504;2022-12-20T07:18:30;4.63;;;4.63;;
71172;SDS011;58875;51.996;4.504;2022-12-20T07:21:05;4.62;;;4.62;;
71172;SDS011;58875;51.996;4.504;2022-12-20T07:23:31;4.79;;;4.79;;
71172;SDS011;58875;51.996;4.504;2022-12-20T07:25:58;4.89;;;4.89;;
71172;SDS011;58875;51.996;4.504;2022-12-20T07:28:25;5.00;;;5.00;;
71172;SDS011;58875;51.996;4.504;2022-12-20T07:30:52;4.75;;;4.75;;
71172;SDS011;58875;51.996;4.504;2022-12-20T07:33:18;5.05;;;5.05;;
71172;SDS011;58875;51.996;4.504;2022-12-20T07:35:45;4.72;;;4.72;;
71172;SDS011;58875;51.996;4.504;2022-12-20T07:38:11;4.68;;;4.68;;
71172;SDS011;58875;51.996;4.504;2022-12-20T07:40:40;4.79;;;4.79;;
71172;SDS011;58875;51.996;4.504;2022-12-20T07:43:07;4.77;;;4.77;;
71172;SDS011;58875;51.996;4.504;2022-12-20T07:45:33;4.83;;;4.83;;
71172;SDS011;58875;51.996;4.504;2022-12-20T07:47:59;4.69;;;4.69;;
71172;SDS011;58875;51.996;4.504;2022-12-20T07:50:25;4.67;;;4.67;;
71172;SDS011;58875;51.996;4.504;2022-12-20T07:52:52;4.76;;;4.76;;
71172;SDS011;58875;51.996;4.504;2022-12-20T07:55:19;4.75;;;4.75;;
71172;SDS011;58875;51.996;4.504;2022-12-20T07:57:46;4.74;;;4.74;;
71172;SDS011;58875;51.996;4.504;2022-12-20T08:00:19;4.46;;;4.46;;
71172;SDS011;58875;51.996;4.504;2022-12-20T08:02:48;4.58;;;4.58;;
71172;SDS011;58875;51.996;4.504;2022-12-20T08:05:22;4.75;;;4.75;;
71172;SDS011;58875;51.996;4.504;2022-12-20T08:07:48;4.47;;;4.47;;
71172;SDS011;58875;51.996;4.504;2022-12-20T08:10:15;4.62;;;4.62;;
71172;SDS011;58875;51.996;4.504;2022-12-20T08:12:43;4.50;;;4.50;;
71172;SDS011;58875;51.996;4.504;2022-12-20T08:15:12;4.67;;;4.67;;
71172;SDS011;58875;51.996;4.504;2022-12-20T08:17:38;4.33;;;4.33;;
71172;SDS011;58875;51.996;4.504;2022-12-20T08:20:04;4.57;;;4.57;;
71172;SDS011;58875;51.996;4.504;2022-12-20T08:22:32;4.39;;;4.39;;
71172;SDS011;58875;51.996;4.504;2022-12-20T08:24:58;4.26;;;4.26;;
71172;SDS011;58875;51.996;4.504;2022-12-20T08:27:24;4.55;;;4.55;;
71172;SDS011;58875;51.996;4.504;2022-12-20T08:29:50;4.20;;;4.20;;
71172;SDS011;58875;51.996;4.504;2022-12-20T08:32:15;4.36;;;4.36;;
71172;SDS011;58875;51.996;4.504;2022-12-20T08:34:41;4.26;;;4.26;;
71172;SDS011;58875;51.996;4.504;2022-12-20T08:37:06;4.17;;;4.17;;
71172;SDS011;58875;51.996;4.504;2022-12-20T08:39:32;4.24;;;4.24;;
71172;SDS011;58875;51.996;4.504;2022-12-20T08:41:58;4.13;;;4.13;;
71172;SDS011;58875;51.996;4.504;2022-12-20T08:44:23;4.01;;;4.01;;
71172;SDS011;58875;51.996;4.504;2022-12-20T08:46:49;4.12;;;4.12;;
71172;SDS011;58875;51.996;4.504;2022-12-20T08:49:15;4.07;;;4.07;;
71172;SDS011;58875;51.996;4.504;2022-12-20T08:51:41;4.18;;;4.18;;
71172;SDS011;58875;51.996;4.504;2022-12-20T08:54:06;3.89;;;3.89;;
71172;SDS011;58875;51.996;4.504;2022-12-20T08:56:32;4.25;;;4.25;;
71172;SDS011;58875;51.996;4.504;2022-12-20T08:58:58;4.43;;;4.43;;
71172;SDS011;58875;51.996;4.504;2022-12-20T09:01:23;4.42;;;4.42;;
71172;SDS011;58875;51.996;4.504;2022-12-20T09:03:50;4.26;;;4.26;;
71172;SDS011;58875;51.996;4.504;2022-12-20T09:06:18;4.18;;;4.18;;
71172;SDS011;58875;51.996;4.504;2022-12-20T09:08:45;4.48;;;4.48;;
71172;SDS011;58875;51.996;4.504;2022-12-20T09:11:22;4.49;;;4.49;;
71172;SDS011;58875;51.996;4.504;2022-12-20T09:13:50;4.40;;;4.40;;
71172;SDS011;58875;51.996;4.504;2022-12-20T09:16:19;4.73;;;4.73;;
71172;SDS011;58875;51.996;4.504;2022-12-20T09:18:48;4.59;;;4.59;;
71172;SDS011;58875;51.996;4.504;2022-12-20T09:21:15;4.69;;;4.69;;
71172;SDS011;58875;51.996;4.504;2022-12-20T09:23:41;4.49;;;4.49;;
71172;SDS011;58875;51.996;4.504;2022-12-20T09:26:08;4.54;;;4.54;;
71172;SDS011;58875;51.996;4.504;2022-12-20T09:28:36;4.53;;;4.53;;
71172;SDS011;58875;51.996;4.504;2022-12-20T09:31:03;4.80;;;4.80;;
71172;SDS011;58875;51.996;4.504;2022-12-20T09:33:31;5.12;;;5.12;;
71172;SDS011;58875;51.996;4.504;2022-12-20T09:35:58;4.68;;;4.68;;
71172;SDS011;58875;51.996;4.504;2022-12-20T09:38:25;4.64;;;4.64;;
71172;SDS011;58875;51.996;4.504;2022-12-20T09:40:53;4.79;;;4.79;;
71172;SDS011;58875;51.996;4.504;2022-12-20T09:43:25;4.78;;;4.78;;
71172;SDS011;58875;51.996;4.504;2022-12-20T09:45:59;4.94;;;4.94;;
71172;SDS011;58875;51.996;4.504;2022-12-20T09:56:44;4.86;;;4.86;;
71172;SDS011;58875;51.996;4.504;2022-12-20T09:59:21;5.19;;;5.19;;
71172;SDS011;58875;51.996;4.504;2022-12-20T10:01:48;5.36;;;5.36;;
71172;SDS011;58875;51.996;4.504;2022-12-20T10:04:25;5.23;;;5.23;;
71172;SDS011;58875;51.996;4.504;2022-12-20T10:15:15;5.07;;;5.07;;
71172;SDS011;58875;51.996;4.504;2022-12-20T10:22:58;5.47;;;5.47;;
71172;SDS011;58875;51.996;4.504;2022-12-20T10:25:33;5.25;;;5.25;;
71172;SDS011;58875;51.996;4.504;2022-12-20T10:28:00;5.20;;;5.20;;
71172;SDS011;58875;51.996;4.504;2022-12-20T10:30:35;5.02;;;5.02;;
71172;SDS011;58875;51.996;4.504;2022-12-20T10:33:01;5.52;;;5.52;;
71172;SDS011;58875;51.996;4.504;2022-12-20T10:35:28;5.27;;;5.27;;
71172;SDS011;58875;51.996;4.504;2022-12-20T10:40:31;5.34;;;5.34;;
71172;SDS011;58875;51.996;4.504;2022-12-20T10:42:59;5.09;;;5.09;;
71172;SDS011;58875;51.996;4.504;2022-12-20T10:45:37;5.32;;;5.32;;
71172;SDS011;58875;51.996;4.504;2022-12-20T10:48:06;5.44;;;5.44;;
71172;SDS011;58875;51.996;4.504;2022-12-20T10:50:55;5.34;;;5.34;;
71172;SDS011;58875;51.996;4.504;2022-12-20T10:53:23;5.05;;;5.05;;
71172;SDS011;58875;51.996;4.504;2022-12-20T10:55:50;5.34;;;5.34;;
71172;SDS011;58875;51.996;4.504;2022-12-20T11:01:13;6.01;;;6.01;;
71172;SDS011;58875;51.996;4.504;2022-12-20T11:06:23;5.56;;;5.56;;
71172;SDS011;58875;51.996;4.504;2022-12-20T11:08:52;6.06;;;6.06;;
71172;SDS011;58875;51.996;4.504;2022-12-20T11:11:22;5.93;;;5.93;;
71172;SDS011;58875;51.996;4.504;2022-12-20T11:13:50;5.78;;;5.78;;
71172;SDS011;58875;51.996;4.504;2022-12-20T11:16:23;5.99;;;5.99;;
71172;SDS011;58875;51.996;4.504;2022-12-20T11:18:56;6.03;;;6.03;;
71172;SDS011;58875;51.996;4.504;2022-12-20T11:22:04;5.90;;;5.90;;
71172;SDS011;58875;51.996;4.504;2022-12-20T11:24:34;6.16;;;6.16;;
71172;SDS011;58875;51.996;4.504;2022-12-20T11:35:25;6.39;;;6.39;;
71172;SDS011;58875;51.996;4.504;2022-12-20T11:40:31;6.57;;;6.57;;
71172;SDS011;58875;51.996;4.504;2022-12-20T11:46:19;6.49;;;6.49;;
71172;SDS011;58875;51.996;4.504;2022-12-20T11:51:45;6.97;;;6.97;;
71172;SDS011;58875;51.996;4.504;2022-12-20T11:54:27;6.81;;;6.81;;
71172;SDS011;58875;51.996;4.504;2022-12-20T11:57:03;6.71;;;6.71;;
71172;SDS011;58875;51.996;4.504;2022-12-20T12:02:16;7.02;;;7.02;;
71172;SDS011;58875;51.996;4.504;2022-12-20T12:04:53;7.34;;;7.34;;
71172;SDS011;58875;51.996;4.504;2022-12-20T12:07:34;7.54;;;7.54;;
71172;SDS011;58875;51.996;4.504;2022-12-20T12:12:31;7.43;;;7.43;;
71172;SDS011;58875;51.996;4.504;2022-12-20T12:15:45;7.57;;;7.57;;
71172;SDS011;58875;51.996;4.504;2022-12-20T12:17:52;7.35;;;7.35;;
71172;SDS011;58875;51.996;4.504;2022-12-20T12:26:01;7.90;;;7.90;;
71172;SDS011;58875;51.996;4.504;2022-12-20T12:28:35;7.83;;;7.83;;
71172;SDS011;58875;51.996;4.504;2022-12-20T12:31:12;8.11;;;8.11;;
71172;SDS011;58875;51.996;4.504;2022-12-20T12:33:47;8.35;;;8.35;;
71172;SDS011;58875;51.996;4.504;2022-12-20T12:41:45;8.41;;;8.41;;
71172;SDS011;58875;51.996;4.504;2022-12-20T12:47:36;8.64;;;8.64;;
71172;SDS011;58875;51.996;4.504;2022-12-20T12:50:43;8.80;;;8.80;;
71172;SDS011;58875;51.996;4.504;2022-12-20T12:53:50;8.51;;;8.51;;
71172;SDS011;58875;51.996;4.504;2022-12-20T13:09:19;8.38;;;8.38;;
71172;SDS011;58875;51.996;4.504;2022-12-20T13:11:59;8.49;;;8.49;;
71172;SDS011;58875;51.996;4.504;2022-12-20T13:21:15;8.28;;;8.28;;
71172;SDS011;58875;51.996;4.504;2022-12-20T13:26:57;8.83;;;8.83;;
71172;SDS011;58875;51.996;4.504;2022-12-20T13:29:27;8.44;;;8.44;;
71172;SDS011;58875;51.996;4.504;2022-12-20T13:31:58;8.91;;;8.91;;
71172;SDS011;58875;51.996;4.504;2022-12-20T13:34:34;8.79;;;8.79;;
71172;SDS011;58875;51.996;4.504;2022-12-20T13:37:22;8.96;;;8.96;;
71172;SDS011;58875;51.996;4.504;2022-12-20T13:40:15;8.98;;;8.98;;
71172;SDS011;58875;51.996;4.504;2022-12-20T13:42:55;9.04;;;9.04;;
71172;SDS011;58875;51.996;4.504;2022-12-20T13:45:26;9.22;;;9.22;;
71172;SDS011;58875;51.996;4.504;2022-12-20T13:47:53;9.34;;;9.34;;
71172;SDS011;58875;51.996;4.504;2022-12-20T13:50:35;9.49;;;9.49;;
71172;SDS011;58875;51.996;4.504;2022-12-20T13:53:05;9.82;;;9.82;;
71172;SDS011;58875;51.996;4.504;2022-12-20T13:55:42;9.27;;;9.27;;
71172;SDS011;58875;51.996;4.504;2022-12-20T13:58:18;9.26;;;9.26;;
71172;SDS011;58875;51.996;4.504;2022-12-20T14:00:48;9.91;;;9.91;;
71172;SDS011;58875;51.996;4.504;2022-12-20T14:03:19;10.15;;;10.15;;
71172;SDS011;58875;51.996;4.504;2022-12-20T14:05:57;11.00;;;11.00;;
71172;SDS011;58875;51.996;4.504;2022-12-20T14:08:28;10.44;;;10.44;;
71172;SDS011;58875;51.996;4.504;2022-12-20T14:13:50;10.87;;;10.87;;
71172;SDS011;58875;51.996;4.504;2022-12-20T14:16:18;11.47;;;11.47;;
71172;SDS011;58875;51.996;4.504;2022-12-20T14:18:48;11.85;;;11.85;;
71172;SDS011;58875;51.996;4.504;2022-12-20T14:21:15;11.61;;;11.61;;
71172;SDS011;58875;51.996;4.504;2022-12-20T14:23:44;11.67;;;11.67;;
71172;SDS011;58875;51.996;4.504;2022-12-20T14:26:21;12.13;;;12.13;;
71172;SDS011;58875;51.996;4.504;2022-12-20T14:28:51;11.75;;;11.75;;
71172;SDS011;58875;51.996;4.504;2022-12-20T14:31:24;11.68;;;11.68;;
71172;SDS011;58875;51.996;4.504;2022-12-20T14:34:10;11.42;;;11.42;;
71172;SDS011;58875;51.996;4.504;2022-12-20T14:36:42;11.23;;;11.23;;
71172;SDS011;58875;51.996;4.504;2022-12-20T14:39:29;11.63;;;11.63;;
71172;SDS011;58875;51.996;4.504;2022-12-20T14:41:56;11.97;;;11.97;;
71172;SDS011;58875;51.996;4.504;2022-12-20T14:44:36;12.71;;;12.71;;
71172;SDS011;58875;51.996;4.504;2022-12-20T14:47:10;12.67;;;12.67;;
71172;SDS011;58875;51.996;4.504;2022-12-20T14:49:45;12.45;;;12.45;;
71172;SDS011;58875;51.996;4.504;2022-12-20T14:52:14;12.47;;;12.47;;
71172;SDS011;58875;51.996;4.504;2022-12-20T14:57:24;11.55;;;11.55;;
71172;SDS011;58875;51.996;4.504;2022-12-20T15:00:01;11.65;;;11.65;;
71172;SDS011;58875;51.996;4.504;2022-12-20T15:02:49;11.93;;;11.93;;
71172;SDS011;58875;51.996;4.504;2022-12-20T15:13:26;12.45;;;12.45;;
71172;SDS011;58875;51.996;4.504;2022-12-20T15:15:54;12.47;;;12.47;;
71172;SDS011;58875;51.996;4.504;2022-12-20T15:18:23;12.49;;;12.49;;
71172;SDS011;58875;51.996;4.504;2022-12-20T15:23:46;12.56;;;12.56;;
71172;SDS011;58875;51.996;4.504;2022-12-20T15:26:16;12.68;;;12.68;;
71172;SDS011;58875;51.996;4.504;2022-12-20T15:28:43;12.90;;;12.90;;
71172;SDS011;58875;51.996;4.504;2022-12-20T15:31:09;12.67;;;12.67;;
71172;SDS011;58875;51.996;4.504;2022-12-20T15:33:37;12.77;;;12.77;;
71172;SDS011;58875;51.996;4.504;2022-12-20T15:36:05;13.55;;;13.55;;
71172;SDS011;58875;51.996;4.504;2022-12-20T15:38:37;13.00;;;12.98;;
71172;SDS011;58875;51.996;4.504;2022-12-20T15:41:03;13.38;;;13.38;;
71172;SDS011;58875;51.996;4.504;2022-12-20T15:43:35;13.19;;;13.19;;
71172;SDS011;58875;51.996;4.504;2022-12-20T15:46:03;12.82;;;12.82;;
71172;SDS011;58875;51.996;4.504;2022-12-20T15:48:29;12.96;;;12.96;;
71172;SDS011;58875;51.996;4.504;2022-12-20T15:50:56;13.32;;;13.32;;
71172;SDS011;58875;51.996;4.504;2022-12-20T15:53:32;12.80;;;12.80;;
71172;SDS011;58875;51.996;4.504;2022-12-20T15:55:59;13.00;;;13.00;;
71172;SDS011;58875;51.996;4.504;2022-12-20T15:58:24;13.16;;;13.16;;
71172;SDS011;58875;51.996;4.504;2022-12-20T16:00:55;13.33;;;13.33;;
71172;SDS011;58875;51.996;4.504;2022-12-20T16:03:26;13.83;;;13.83;;
71172;SDS011;58875;51.996;4.504;2022-12-20T16:05:55;13.12;;;13.12;;
71172;SDS011;58875;51.996;4.504;2022-12-20T16:08:22;13.46;;;13.46;;
71172;SDS011;58875;51.996;4.504;2022-12-20T16:10:48;14.21;;;14.21;;
71172;SDS011;58875;51.996;4.504;2022-12-20T16:13:22;13.52;;;13.52;;
71172;SDS011;58875;51.996;4.504;2022-12-20T16:15:51;13.56;;;13.56;;
71172;SDS011;58875;51.996;4.504;2022-12-20T16:18:18;13.75;;;13.75;;
71172;SDS011;58875;51.996;4.504;2022-12-20T16:20:43;13.65;;;13.65;;
71172;SDS011;58875;51.996;4.504;2022-12-20T16:23:15;13.22;;;13.22;;
71172;SDS011;58875;51.996;4.504;2022-12-20T16:25:43;13.30;;;13.30;;
71172;SDS011;58875;51.996;4.504;2022-12-20T16:28:09;13.24;;;13.24;;
71172;SDS011;58875;51.996;4.504;2022-12-20T16:30:35;13.17;;;13.17;;
71172;SDS011;58875;51.996;4.504;2022-12-20T16:33:00;13.19;;;13.19;;
71172;SDS011;58875;51.996;4.504;2022-12-20T16:35:30;13.79;;;13.78;;
71172;SDS011;58875;51.996;4.504;2022-12-20T16:38:00;14.18;;;14.17;;
71172;SDS011;58875;51.996;4.504;2022-12-20T16:40:27;14.72;;;14.72;;
71172;SDS011;58875;51.996;4.504;2022-12-20T16:42:55;14.37;;;14.36;;
71172;SDS011;58875;51.996;4.504;2022-12-20T16:45:24;15.12;;;15.12;;
71172;SDS011;58875;51.996;4.504;2022-12-20T16:47:52;15.07;;;15.07;;
71172;SDS011;58875;51.996;4.504;2022-12-20T16:50:18;14.70;;;14.69;;
71172;SDS011;58875;51.996;4.504;2022-12-20T16:52:46;15.72;;;15.62;;
71172;SDS011;58875;51.996;4.504;2022-12-20T16:55:18;15.32;;;15.08;;
71172;SDS011;58875;51.996;4.504;2022-12-20T16:57:49;15.17;;;15.17;;
71172;SDS011;58875;51.996;4.504;2022-12-20T17:02:49;15.67;;;15.47;;
71172;SDS011;58875;51.996;4.504;2022-12-20T17:05:37;15.62;;;15.59;;
71172;SDS011;58875;51.996;4.504;2022-12-20T17:08:03;15.86;;;15.67;;